createdAt,value
2018-05-24T00:01:15.968Z,79.30
2018-05-24T00:03:44.349Z,79.20
2018-05-24T00:06:12.643Z,79.50
2018-05-24T00:08:40.870Z,79.80
2018-05-24T00:11:09.176Z,80.10
2018-05-24T00:13:37.509Z,80.20
2018-05-24T00:16:05.707Z,80.10
2018-05-24T00:18:33.973Z,80.30
2018-05-24T00:21:02.205Z,80.80
2018-05-24T00:23:30.475Z,80.80
2018-05-24T00:25:58.853Z,80.80
2018-05-24T00:28:27.135Z,80.90
2018-05-24T00:30:56.180Z,81.20
2018-05-24T00:33:24.441Z,81.70
2018-05-24T00:35:52.690Z,81.00
2018-05-24T00:38:22.676Z,81.60
2018-05-24T00:40:50.932Z,81.60
2018-05-24T00:43:19.249Z,81.60
2018-05-24T00:45:48.251Z,81.60
2018-05-24T00:48:17.300Z,82.00
2018-05-24T00:50:45.612Z,82.00
2018-05-24T00:53:15.270Z,82.10
2018-05-24T00:55:43.535Z,82.30
2018-05-24T00:58:11.809Z,82.40
2018-05-24T01:00:40.114Z,82.50
2018-05-24T01:03:08.349Z,82.20
2018-05-24T01:05:36.664Z,82.90
2018-05-24T01:08:05.783Z,83.00
2018-05-24T01:10:34.061Z,83.30
2018-05-24T01:13:02.329Z,83.40
2018-05-24T01:15:30.566Z,83.80
2018-05-24T01:17:59.565Z,84.00
2018-05-24T01:20:27.837Z,83.80
2018-05-24T01:22:56.074Z,84.50
2018-05-24T01:25:25.112Z,85.10
2018-05-24T01:27:54.203Z,85.10
2018-05-24T01:30:23.705Z,85.50
2018-05-24T01:32:51.974Z,85.60
2018-05-24T01:35:21.110Z,85.90
2018-05-24T01:37:50.197Z,86.10
2018-05-24T01:40:18.474Z,85.70
2018-05-24T01:42:46.762Z,86.40
2018-05-24T01:45:15.046Z,86.90
2018-05-24T01:47:43.376Z,87.00
2018-05-24T01:50:11.692Z,87.20
2018-05-24T01:52:39.962Z,87.00
2018-05-24T01:55:11.904Z,87.70
2018-05-24T01:57:41.077Z,87.80
2018-05-24T02:00:10.139Z,87.90
2018-05-24T02:02:39.658Z,88.30
2018-05-24T02:05:09.153Z,88.30
2018-05-24T02:07:38.338Z,89.20
2018-05-24T02:10:06.572Z,88.90
2018-05-24T02:12:35.990Z,89.00
2018-05-24T02:15:04.251Z,89.70
2018-05-24T02:17:32.525Z,89.70
2018-05-24T02:20:00.825Z,89.70
2018-05-24T02:22:29.085Z,89.80
2018-05-24T02:24:57.357Z,89.90
2018-05-24T02:27:25.687Z,90.00
2018-05-24T02:29:55.973Z,90.40
2018-05-24T02:32:24.514Z,90.10
2018-05-24T02:34:52.775Z,90.00
2018-05-24T02:37:21.871Z,90.40
2018-05-24T02:39:50.996Z,90.70
2018-05-24T02:42:19.270Z,90.60
2018-05-24T02:44:48.307Z,90.70
2018-05-24T02:47:16.595Z,90.80
2018-05-24T02:49:46.360Z,90.70
2018-05-24T02:52:15.462Z,90.70
2018-05-24T02:54:43.716Z,90.70
2018-05-24T02:57:12.011Z,90.70
2018-05-24T02:59:40.261Z,90.80
2018-05-24T03:02:09.354Z,90.70
2018-05-24T03:04:38.365Z,90.60
2018-05-24T03:07:06.639Z,90.60
2018-05-24T03:09:34.953Z,90.50
2018-05-24T03:12:03.224Z,90.40
2018-05-24T03:14:31.517Z,90.30
2018-05-24T03:16:59.824Z,90.20
2018-05-24T03:19:28.935Z,90.20
2018-05-24T03:21:57.186Z,90.10
2018-05-24T03:24:26.261Z,90.10
2018-05-24T03:26:54.538Z,90.10
2018-05-24T03:29:22.765Z,90.10
2018-05-24T03:31:51.656Z,90.00
2018-05-24T03:34:19.921Z,90.00
2018-05-24T03:36:48.159Z,90.00
2018-05-24T03:39:17.202Z,89.90
2018-05-24T03:41:45.510Z,89.80
2018-05-24T03:44:13.798Z,89.50
2018-05-24T03:46:43.582Z,89.10
2018-05-24T03:49:12.986Z,89.10
2018-05-24T03:51:41.288Z,89.00
2018-05-24T03:54:09.569Z,88.80
2018-05-24T03:56:38.937Z,89.00
2018-05-24T04:12:48.252Z,88.60
2018-05-24T04:15:17.772Z,88.40
2018-05-24T04:17:46.139Z,88.40
2018-05-24T04:20:15.327Z,88.30
2018-05-24T04:22:43.581Z,88.30
2018-05-24T04:25:11.938Z,88.10
2018-05-24T04:27:40.956Z,88.10
2018-05-24T04:30:09.215Z,88.10
2018-05-24T04:32:38.254Z,87.70
2018-05-24T04:35:06.498Z,87.70
2018-05-24T04:37:34.771Z,87.50
2018-05-24T04:40:03.789Z,87.00
2018-05-24T04:42:32.070Z,87.00
2018-05-24T04:45:00.352Z,86.80
2018-05-24T04:47:28.604Z,86.10
2018-05-24T04:49:57.502Z,82.20
2018-05-24T04:52:25.818Z,77.10
2018-05-24T04:54:55.236Z,72.80
2018-05-24T04:57:23.449Z,68.90
2018-05-24T04:59:51.745Z,66.70
2018-05-24T05:02:20.041Z,64.30
2018-05-24T05:04:49.444Z,62.20
2018-05-24T05:07:21.383Z,59.60
2018-05-24T05:09:49.635Z,58.60
2018-05-24T05:12:17.983Z,58.50
2018-05-24T05:14:48.991Z,58.30
2018-05-24T05:17:17.297Z,57.40
2018-05-24T05:19:45.554Z,57.00
2018-05-24T05:22:13.787Z,57.70
2018-05-24T05:24:42.083Z,57.90
2018-05-24T05:27:11.533Z,57.30
2018-05-24T05:29:39.803Z,56.40
2018-05-24T05:32:08.910Z,56.20
2018-05-24T05:34:37.951Z,55.50
2018-05-24T05:37:06.223Z,55.50
2018-05-24T05:39:34.491Z,56.00
2018-05-24T05:42:02.786Z,56.60
2018-05-24T05:44:31.060Z,55.50
2018-05-24T05:46:59.334Z,55.60
2018-05-24T05:49:27.621Z,54.80
2018-05-24T05:51:56.401Z,52.00
2018-05-24T05:54:25.794Z,52.90
2018-05-24T05:56:54.078Z,54.20
2018-05-24T05:59:23.107Z,54.30
2018-05-24T06:01:51.484Z,54.00
2018-05-24T06:04:19.696Z,54.50
2018-05-24T06:06:47.972Z,52.80
2018-05-24T06:09:16.235Z,52.00
2018-05-24T06:11:45.360Z,50.70
2018-05-24T06:14:13.640Z,50.70
2018-05-24T06:16:41.891Z,49.20
2018-05-24T06:19:10.955Z,49.50
2018-05-24T06:21:39.429Z,49.50
2018-05-24T06:24:07.660Z,49.30
2018-05-24T06:26:35.977Z,47.90
2018-05-24T06:29:04.247Z,46.00
2018-05-24T06:31:32.483Z,44.80
2018-05-24T06:34:00.767Z,45.10
2018-05-24T06:36:29.067Z,46.80
2018-05-24T06:38:57.339Z,46.70
2018-05-24T06:41:25.627Z,48.80
2018-05-24T06:43:53.875Z,49.40
2018-05-24T06:46:22.210Z,49.90
2018-05-24T06:48:50.400Z,48.20
2018-05-24T06:51:18.628Z,48.20
2018-05-24T06:53:46.912Z,48.40
2018-05-24T06:56:15.313Z,47.90
2018-05-24T06:58:43.644Z,47.70
2018-05-24T07:01:11.897Z,48.80
2018-05-24T07:03:40.198Z,48.30
2018-05-24T07:06:08.439Z,46.50
2018-05-24T07:08:37.580Z,45.80
2018-05-24T07:11:09.637Z,45.20
2018-05-24T07:13:37.852Z,46.10
2018-05-24T07:16:06.884Z,46.00
2018-05-24T07:18:36.327Z,46.40
2018-05-24T07:21:04.594Z,47.00
2018-05-24T07:23:32.867Z,47.40
2018-05-24T07:26:01.157Z,46.20
2018-05-24T07:28:29.407Z,45.00
2018-05-24T07:30:57.708Z,44.20
2018-05-24T07:33:26.009Z,44.00
2018-05-24T07:35:55.011Z,45.50
2018-05-24T07:38:23.325Z,45.40
2018-05-24T07:40:51.594Z,44.30
2018-05-24T07:43:21.011Z,45.50
2018-05-24T07:45:49.275Z,44.90
2018-05-24T07:48:17.568Z,43.80
2018-05-24T07:50:45.860Z,44.00
2018-05-24T07:53:14.139Z,45.60
2018-05-24T07:55:42.496Z,45.40
2018-05-24T07:58:10.775Z,47.30
2018-05-24T08:00:39.066Z,48.60
2018-05-24T08:03:07.379Z,50.30
2018-05-24T08:05:36.428Z,54.90
2018-05-24T08:08:04.817Z,54.90
2018-05-24T08:10:33.473Z,55.70
2018-05-24T08:13:01.722Z,56.30
2018-05-24T08:15:29.981Z,56.50
2018-05-24T08:17:59.042Z,58.30
2018-05-24T08:20:27.286Z,58.30
2018-05-24T08:22:55.570Z,57.60
2018-05-24T08:25:23.812Z,58.00
2018-05-24T08:27:52.847Z,58.50
2018-05-24T08:30:22.305Z,58.40
2018-05-24T08:32:51.323Z,58.70
2018-05-24T08:35:19.592Z,58.60
2018-05-24T08:37:47.892Z,58.80
2018-05-24T08:40:16.206Z,58.80
2018-05-24T08:42:44.472Z,58.20
2018-05-24T08:45:12.885Z,58.20
2018-05-24T08:47:41.923Z,56.70
2018-05-24T08:50:10.224Z,56.60
2018-05-24T08:52:39.973Z,56.30
2018-05-24T08:55:08.292Z,56.30
2018-05-24T08:57:36.571Z,56.50
2018-05-24T09:00:04.979Z,55.50
2018-05-24T09:02:33.246Z,55.10
2018-05-24T09:05:01.535Z,55.10
2018-05-24T09:07:30.604Z,52.50
2018-05-24T09:09:58.866Z,53.00
2018-05-24T09:12:27.160Z,51.70
2018-05-24T09:14:56.191Z,52.40
2018-05-24T09:17:24.536Z,50.40
2018-05-24T09:19:52.930Z,50.60
2018-05-24T09:22:21.176Z,50.10
2018-05-24T09:24:49.471Z,49.10
2018-05-24T09:27:17.730Z,47.20
2018-05-24T09:29:45.998Z,47.80
2018-05-24T09:32:14.359Z,48.00
2018-05-24T09:34:42.658Z,48.70
2018-05-24T09:37:10.896Z,48.40
2018-05-24T09:39:39.163Z,49.40
2018-05-24T09:42:07.465Z,49.00
2018-05-24T09:44:35.695Z,47.10
2018-05-24T09:47:04.704Z,45.10
2018-05-24T09:49:32.974Z,45.00
2018-05-24T09:52:02.144Z,45.30
2018-05-24T09:54:30.381Z,45.20
2018-05-24T09:56:58.690Z,45.20
2018-05-24T09:59:26.974Z,45.50
2018-05-24T10:01:55.236Z,47.00
2018-05-24T10:04:23.467Z,47.80
2018-05-24T10:06:51.744Z,47.00
2018-05-24T10:09:20.073Z,47.20
2018-05-24T10:11:48.288Z,47.10
2018-05-24T10:14:16.594Z,46.80
2018-05-24T10:16:46.234Z,45.20
2018-05-24T10:19:14.495Z,43.60
2018-05-24T10:21:42.738Z,43.40
2018-05-24T10:24:11.081Z,43.70
2018-05-24T10:26:40.129Z,42.00
2018-05-24T10:29:08.433Z,41.90
2018-05-24T10:31:36.667Z,41.50
2018-05-24T10:34:04.946Z,41.60
2018-05-24T10:36:34.138Z,40.30
2018-05-24T10:39:02.409Z,41.70
2018-05-24T10:41:30.707Z,40.80
2018-05-24T10:43:58.940Z,40.80
2018-05-24T10:46:27.974Z,42.20
2018-05-24T10:48:56.242Z,42.20
2018-05-24T10:51:24.508Z,43.80
2018-05-24T10:53:52.786Z,42.90
2018-05-24T10:56:21.069Z,43.70
2018-05-24T10:58:49.380Z,43.50
2018-05-24T11:01:18.826Z,44.40
2018-05-24T11:03:47.852Z,46.10
2018-05-24T11:06:16.931Z,46.10
2018-05-24T11:08:45.209Z,46.70
2018-05-24T11:11:13.517Z,46.30
2018-05-24T11:13:42.588Z,46.90
2018-05-24T11:16:11.573Z,48.10
2018-05-24T11:18:39.864Z,48.00
2018-05-24T11:21:09.077Z,47.90
2018-05-24T11:23:38.652Z,48.50
2018-05-24T11:26:07.125Z,48.00
2018-05-24T11:28:35.421Z,48.70
2018-05-24T11:31:03.687Z,49.10
2018-05-24T11:33:31.975Z,48.70
2018-05-24T11:36:00.274Z,49.10
2018-05-24T11:38:28.572Z,48.80
2018-05-24T11:40:56.865Z,48.90
2018-05-24T11:43:26.006Z,48.30
2018-05-24T11:45:54.248Z,48.10
2018-05-24T11:48:22.607Z,47.60
2018-05-24T11:50:50.867Z,48.10
2018-05-24T11:53:19.499Z,48.10
2018-05-24T11:55:48.760Z,48.80
2018-05-24T11:58:17.093Z,49.10
2018-05-24T12:00:45.402Z,49.30
2018-05-24T12:03:13.984Z,49.60
2018-05-24T12:05:42.257Z,51.30
2018-05-24T12:08:10.493Z,52.90
2018-05-24T12:10:38.770Z,54.40
2018-05-24T12:13:07.106Z,54.20
2018-05-24T12:15:35.358Z,53.10
2018-05-24T12:18:04.918Z,53.20
2018-05-24T12:20:33.141Z,54.20
2018-05-24T12:23:01.567Z,52.40
2018-05-24T12:25:31.024Z,52.00
2018-05-24T12:27:59.264Z,52.30
2018-05-24T12:30:28.056Z,53.20
2018-05-24T12:32:56.310Z,53.20
2018-05-24T12:35:24.671Z,53.20
2018-05-24T12:37:52.892Z,53.00
2018-05-24T12:40:21.178Z,52.60
2018-05-24T12:42:49.414Z,52.20
2018-05-24T12:45:17.722Z,52.50
2018-05-24T12:47:45.961Z,52.40
2018-05-24T12:50:14.268Z,53.10
2018-05-24T12:52:42.574Z,52.60
2018-05-24T12:55:10.805Z,52.90
2018-05-24T12:57:39.077Z,52.30
2018-05-24T13:00:07.380Z,52.10
2018-05-24T13:02:35.587Z,51.50
2018-05-24T13:05:04.774Z,51.10
2018-05-24T13:07:33.008Z,51.10
2018-05-24T13:10:01.250Z,50.70
2018-05-24T13:12:30.319Z,52.70
2018-05-24T13:14:58.591Z,52.60
2018-05-24T13:17:26.869Z,50.00
2018-05-24T13:19:55.129Z,49.20
2018-05-24T13:22:23.527Z,51.40
2018-05-24T13:24:52.632Z,52.60
2018-05-24T13:27:21.215Z,52.50
2018-05-24T13:29:50.005Z,53.00
2018-05-24T13:32:18.332Z,51.60
2018-05-24T13:34:46.596Z,52.30
2018-05-24T13:37:14.897Z,52.50
2018-05-24T13:39:43.196Z,53.20
2018-05-24T13:42:11.462Z,53.60
2018-05-24T13:44:39.731Z,53.40
2018-05-24T13:47:08.351Z,53.40
2018-05-24T13:49:37.352Z,53.30
2018-05-24T13:52:06.384Z,54.00
2018-05-24T13:54:34.683Z,53.80
2018-05-24T13:57:02.940Z,53.70
2018-05-24T13:59:31.196Z,54.30
2018-05-24T14:01:59.513Z,54.70
2018-05-24T14:04:27.798Z,54.70
2018-05-24T14:06:56.088Z,55.10
2018-05-24T14:09:24.388Z,55.20
2018-05-24T14:11:53.455Z,55.30
2018-05-24T14:14:21.791Z,55.30
2018-05-24T14:16:50.222Z,55.00
2018-05-24T14:19:18.496Z,55.20
2018-05-24T14:21:47.745Z,55.00
2018-05-24T14:24:16.067Z,54.20
2018-05-24T14:26:44.283Z,54.10
2018-05-24T14:29:12.582Z,53.10
2018-05-24T14:31:41.326Z,52.80
2018-05-24T14:34:11.263Z,51.70
2018-05-24T14:36:39.553Z,51.60
2018-05-24T14:39:09.896Z,52.50
2018-05-24T14:41:38.196Z,51.70
2018-05-24T14:44:06.564Z,51.60
2018-05-24T14:46:34.834Z,51.20
2018-05-24T14:49:04.258Z,51.20
2018-05-24T14:51:32.634Z,51.50
2018-05-24T14:54:00.897Z,50.40
2018-05-24T14:56:29.183Z,51.00
2018-05-24T14:58:57.558Z,50.60
2018-05-24T15:01:25.815Z,51.40
2018-05-24T15:03:54.112Z,50.80
2018-05-24T15:06:22.394Z,51.50
2018-05-24T15:08:50.652Z,52.10
2018-05-24T15:11:18.903Z,51.70
2018-05-24T15:13:50.559Z,52.50
2018-05-24T15:16:18.817Z,52.00
2018-05-24T15:18:47.106Z,52.50
2018-05-24T15:21:15.486Z,52.50
2018-05-24T15:23:43.759Z,51.90
2018-05-24T15:26:12.019Z,52.00
2018-05-24T15:28:40.315Z,52.50
2018-05-24T15:31:08.567Z,52.40
2018-05-24T15:33:36.860Z,52.80
2018-05-24T15:36:05.160Z,51.70
2018-05-24T15:38:33.605Z,52.00
2018-05-24T15:41:02.624Z,51.50
2018-05-24T15:43:30.912Z,51.50
2018-05-24T15:45:59.224Z,51.20
2018-05-24T15:48:27.835Z,51.40
2018-05-24T15:50:56.087Z,51.80
2018-05-24T15:53:25.125Z,50.80
2018-05-24T15:55:53.383Z,50.70
2018-05-24T15:58:21.653Z,50.40
2018-05-24T16:00:49.937Z,50.70
2018-05-24T16:03:18.196Z,51.50
2018-05-24T16:05:46.438Z,51.30
2018-05-24T16:08:14.807Z,51.20
2018-05-24T16:10:43.069Z,51.50
2018-05-24T16:13:11.321Z,51.30
2018-05-24T16:15:39.639Z,51.00
2018-05-24T16:18:07.920Z,50.90
2018-05-24T16:20:36.266Z,50.90
2018-05-24T16:23:04.582Z,51.20
2018-05-24T16:25:32.812Z,51.00
2018-05-24T16:28:01.110Z,51.10
2018-05-24T16:30:29.390Z,51.20
2018-05-24T16:32:57.659Z,50.90
2018-05-24T16:35:25.937Z,51.10
2018-05-24T16:37:54.244Z,51.20
2018-05-24T16:40:22.484Z,51.80
2018-05-24T16:42:50.848Z,51.90
2018-05-24T16:45:19.141Z,51.30
2018-05-24T16:47:47.440Z,51.90
2018-05-24T16:50:15.803Z,51.20
2018-05-24T16:52:44.036Z,51.20
2018-05-24T16:55:12.344Z,51.50
2018-05-24T16:57:40.649Z,51.50
2018-05-24T17:00:08.925Z,51.70
2018-05-24T17:02:37.279Z,51.90
2018-05-24T17:05:05.536Z,51.90
2018-05-24T17:07:33.800Z,52.20
2018-05-24T17:10:02.099Z,52.00
2018-05-24T17:12:30.561Z,51.90
2018-05-24T17:14:59.602Z,52.60
2018-05-24T17:17:27.972Z,52.50
2018-05-24T17:19:56.245Z,52.80
2018-05-24T17:22:24.556Z,52.90
2018-05-24T17:24:53.640Z,52.60
2018-05-24T17:27:21.861Z,52.60
2018-05-24T17:29:50.163Z,52.90
2018-05-24T17:32:18.425Z,53.30
2018-05-24T17:34:46.697Z,53.50
2018-05-24T17:37:15.006Z,53.60
2018-05-24T17:39:43.281Z,53.70
2018-05-24T17:42:11.635Z,53.60
2018-05-24T17:44:39.941Z,53.80
2018-05-24T17:47:08.315Z,53.80
2018-05-24T17:49:36.594Z,54.20
2018-05-24T17:52:04.863Z,54.70
2018-05-24T17:54:33.474Z,54.70
2018-05-24T17:57:02.509Z,55.80
2018-05-24T17:59:30.770Z,55.90
2018-05-24T18:01:59.047Z,56.00
2018-05-24T18:04:27.341Z,56.10
2018-05-24T18:06:55.603Z,56.20
2018-05-24T18:09:23.924Z,56.50
2018-05-24T18:11:52.194Z,57.00
2018-05-24T18:14:20.495Z,57.10
2018-05-24T18:16:48.760Z,57.40
2018-05-24T18:19:17.061Z,57.60
2018-05-24T18:21:46.077Z,58.20
2018-05-24T18:24:14.408Z,58.20
2018-05-24T18:26:42.717Z,58.30
2018-05-24T18:29:11.730Z,58.60
2018-05-24T18:31:40.037Z,58.60
2018-05-24T18:34:08.533Z,58.90
2018-05-24T18:36:36.798Z,59.20
2018-05-24T18:39:06.008Z,59.40
2018-05-24T18:41:34.292Z,59.70
2018-05-24T18:44:02.623Z,59.90
2018-05-24T18:46:30.935Z,60.10
2018-05-24T18:48:59.220Z,60.50
2018-05-24T18:51:27.541Z,60.90
2018-05-24T18:53:55.826Z,61.40
2018-05-24T18:56:24.134Z,61.80
2018-05-24T18:58:52.422Z,62.30
2018-05-24T19:01:20.697Z,62.70
2018-05-24T19:03:48.997Z,63.10
2018-05-24T19:06:18.053Z,63.90
2018-05-24T19:08:46.357Z,63.90
2018-05-24T19:11:14.829Z,64.30
2018-05-24T19:13:43.205Z,64.80
2018-05-24T19:16:11.474Z,65.10
2018-05-24T19:18:39.782Z,65.50
2018-05-24T19:21:08.055Z,65.70
2018-05-24T19:23:37.136Z,66.60
2018-05-24T19:26:05.991Z,66.50
2018-05-24T19:28:34.264Z,66.80
2018-05-24T19:31:03.248Z,67.20
2018-05-24T19:33:31.548Z,67.50
2018-05-24T19:35:59.816Z,68.00
2018-05-24T19:38:28.125Z,68.30
2018-05-24T19:40:56.466Z,68.60
2018-05-24T19:43:24.781Z,68.70
2018-05-24T19:45:53.052Z,69.10
2018-05-24T19:48:21.369Z,69.70
2018-05-24T19:50:49.649Z,69.90
2018-05-24T19:53:18.352Z,70.30
2018-05-24T19:55:46.837Z,70.60
2018-05-24T19:58:15.965Z,71.30
2018-05-24T20:00:44.284Z,71.30
2018-05-24T20:03:12.561Z,71.60
2018-05-24T20:05:40.915Z,71.80
2018-05-24T20:08:09.575Z,72.10
2018-05-24T20:10:37.881Z,72.50
2018-05-24T20:13:06.983Z,73.00
2018-05-24T20:15:35.272Z,73.00
2018-05-24T20:18:03.560Z,73.30
2018-05-24T20:20:31.848Z,73.50
2018-05-24T20:23:00.139Z,73.70
2018-05-24T20:25:28.739Z,74.00
2018-05-24T20:27:57.831Z,74.70
2018-05-24T20:30:26.104Z,74.70
2018-05-24T20:32:54.531Z,75.00
2018-05-24T20:35:22.899Z,75.10
2018-05-24T20:37:51.168Z,75.40
2018-05-24T20:40:19.527Z,75.50
2018-05-24T20:42:48.206Z,75.70
2018-05-24T20:45:17.610Z,76.20
2018-05-24T20:47:46.666Z,76.50
2018-05-24T20:50:15.290Z,76.50
2018-05-24T20:52:45.003Z,76.70
2018-05-24T20:55:13.491Z,76.70
2018-05-24T20:57:42.591Z,76.90
2018-05-24T21:00:10.846Z,77.00
2018-05-24T21:02:40.677Z,77.30
2018-05-24T21:05:09.249Z,77.20
2018-05-24T21:07:38.415Z,77.60
2018-05-24T21:10:07.505Z,77.50
2018-05-24T21:12:36.098Z,77.80
2018-05-24T21:15:04.705Z,77.90
2018-05-24T21:17:34.794Z,78.30
2018-05-24T21:20:03.229Z,78.20
2018-05-24T21:22:31.487Z,78.50
2018-05-24T21:24:59.741Z,78.70
2018-05-24T21:27:27.995Z,78.90
2018-05-24T21:29:56.325Z,79.00
2018-05-24T21:32:24.901Z,79.10
2018-05-24T21:34:53.176Z,80.10
2018-05-24T21:37:22.442Z,79.70
2018-05-24T21:39:50.725Z,79.90
2018-05-24T21:42:19.003Z,80.10
2018-05-24T21:44:47.273Z,80.20
2018-05-24T21:47:15.562Z,80.50
2018-05-24T21:49:43.832Z,80.50
2018-05-24T21:52:12.126Z,80.70
2018-05-24T21:54:40.360Z,80.70
2018-05-24T21:57:08.679Z,80.90
2018-05-24T21:59:36.961Z,81.00
2018-05-24T22:02:05.359Z,81.00
2018-05-24T22:04:33.678Z,81.10
2018-05-24T22:07:01.920Z,81.10
2018-05-24T22:09:30.225Z,81.30
2018-05-24T22:11:59.651Z,81.50
2018-05-24T22:14:28.151Z,81.50
2018-05-24T22:16:56.426Z,81.80
2018-05-24T22:19:24.664Z,81.80
2018-05-24T22:21:52.945Z,81.80
2018-05-24T22:24:21.253Z,81.80
2018-05-24T22:26:49.527Z,81.90
2018-05-24T22:29:17.853Z,81.90
2018-05-24T22:31:46.116Z,82.20
2018-05-24T22:34:14.718Z,82.20
2018-05-24T22:39:18.873Z,82.50
2018-05-24T22:41:47.158Z,82.60
2018-05-24T22:44:15.421Z,82.60
2018-05-24T22:46:43.690Z,82.70
2018-05-24T22:49:12.705Z,82.70
2018-05-24T22:51:41.064Z,82.80
2018-05-24T22:54:09.330Z,82.90
2018-05-24T22:56:37.577Z,82.90
2018-05-24T22:59:06.663Z,83.30
2018-05-24T23:01:35.830Z,83.40
2018-05-24T23:04:04.130Z,83.40
2018-05-24T23:06:33.192Z,83.40
2018-05-24T23:09:01.698Z,83.40
2018-05-24T23:11:29.931Z,83.50
2018-05-24T23:13:58.188Z,83.70
2018-05-24T23:16:26.504Z,83.80
2018-05-24T23:18:54.790Z,83.90
2018-05-24T23:21:23.040Z,84.00
2018-05-24T23:23:51.353Z,84.00
2018-05-24T23:26:22.404Z,84.30
2018-05-24T23:28:50.691Z,84.20
2018-05-24T23:31:19.742Z,84.40
2018-05-24T23:33:48.050Z,84.40
2018-05-24T23:36:17.080Z,85.40
2018-05-24T23:38:45.372Z,84.70
2018-05-24T23:41:13.646Z,84.80
2018-05-24T23:43:43.090Z,84.90
2018-05-24T23:46:11.362Z,85.10
2018-05-24T23:48:39.652Z,85.10
2018-05-24T23:51:08.696Z,85.50
2018-05-24T23:53:36.968Z,85.50
2018-05-24T23:56:05.242Z,85.70
2018-05-24T23:58:33.570Z,85.90
